Time;durP1;ratioP1;P1;durP2;ratioP2;P2;SDS_P1;SDS_P2;PMS_P1;PMS_P2;Temp;Humidity;BMP_temperature;BMP_pressure;BME280_temperature;BME280_humidity;BME280_pressure;Samples;Min_cycle;Max_cycle;Signal;HPM_P1;HPM_P2
2022/12/23 00:02:18;;;;;;;12.70;2.40;;;;;;;;;;5035644;28;20056;-64
2022/12/23 00:04:44;;;;;;;8.25;2.28;;;;;;;;;;5035715;28;20040;-64
2022/12/23 00:07:10;;;;;;;8.30;1.83;;;;;;;;;;5035209;28;20041;-64
2022/12/23 00:09:36;;;;;;;6.53;1.42;;;;;;;;;;5035441;28;20022;-64
2022/12/23 00:15:06;;;;;;;4.63;1.00;;;;;;;;;;5055414;28;20029;-64
2022/12/23 00:17:33;;;;;;;5.05;1.65;;;;;;;;;;5054539;28;20021;-64
2022/12/23 00:19:59;;;;;;;4.90;1.00;;;;;;;;;;5055206;28;20032;-64
2022/12/23 00:25:10;;;;;;;5.13;1.60;;;;;;;;;;5034793;28;20033;-64
2022/12/23 00:27:36;;;;;;;2.90;1.10;;;;;;;;;;5032531;28;20375;-64
2022/12/23 00:30:03;;;;;;;2.92;0.88;;;;;;;;;;5035253;28;20114;-64
2022/12/23 00:32:29;;;;;;;2.22;1.30;;;;;;;;;;5034590;28;20129;-64
2022/12/23 00:34:55;;;;;;;1.38;0.70;;;;;;;;;;5052199;28;20064;-64
2022/12/23 00:37:21;;;;;;;2.35;0.50;;;;;;;;;;5042906;28;20520;-64
2022/12/23 00:45:18;;;;;;;0.80;0.65;;;;;;;;;;5023816;28;20069;-64
2022/12/23 00:50:29;;;;;;;2.70;0.75;;;;;;;;;;5038171;28;20033;-64
2022/12/23 00:52:56;;;;;;;10.40;0.95;;;;;;;;;;5054754;28;20029;-64
2022/12/23 00:55:22;;;;;;;5.60;0.90;;;;;;;;;;5054333;28;20056;-64
2022/12/23 00:57:48;;;;;;;5.72;1.00;;;;;;;;;;5038041;28;20022;-64
2022/12/23 01:00:14;;;;;;;6.57;1.00;;;;;;;;;;5034753;28;20028;-64
2022/12/23 01:05:37;;;;;;;3.45;1.00;;;;;;;;;;5034234;28;20517;-64
2022/12/23 01:08:04;;;;;;;7.63;1.45;;;;;;;;;;5034477;28;20041;-64
2022/12/23 01:10:30;;;;;;;9.73;1.67;;;;;;;;;;5035005;28;20092;-64
2022/12/23 01:12:57;;;;;;;9.48;1.50;;;;;;;;;;5034450;28;20045;-64
2022/12/23 01:15:23;;;;;;;8.93;1.45;;;;;;;;;;5034378;28;20072;-64
2022/12/23 01:17:49;;;;;;;8.05;1.67;;;;;;;;;;5034100;28;20022;-64
2022/12/23 01:20:15;;;;;;;9.00;2.13;;;;;;;;;;5034061;28;20100;-64
2022/12/23 01:22:41;;;;;;;7.72;1.80;;;;;;;;;;5038592;28;20036;-64
2022/12/23 01:25:07;;;;;;;6.82;1.80;;;;;;;;;;5034262;28;20029;-64
2022/12/23 01:27:33;;;;;;;10.93;1.60;;;;;;;;;;5034127;28;20026;-64
2022/12/23 01:29:59;;;;;;;7.95;1.67;;;;;;;;;;5034468;28;20040;-64
2022/12/23 01:32:26;;;;;;;8.30;1.77;;;;;;;;;;5049326;28;20049;-64
2022/12/23 01:34:52;;;;;;;7.18;1.90;;;;;;;;;;5053782;28;20462;-64
2022/12/23 01:37:18;;;;;;;9.05;1.95;;;;;;;;;;5053872;28;20070;-64
2022/12/23 01:39:44;;;;;;;8.38;1.65;;;;;;;;;;5053776;28;20473;-64
2022/12/23 01:45:11;;;;;;;4.95;1.70;;;;;;;;;;5033735;28;20033;-64
2022/12/23 01:47:37;;;;;;;5.10;1.38;;;;;;;;;;5034022;28;20068;-64
2022/12/23 01:50:06;;;;;;;3.92;1.00;;;;;;;;;;5033814;28;20018;-64
2022/12/23 01:52:33;;;;;;;3.85;1.13;;;;;;;;;;5033546;28;20041;-64
2022/12/23 01:54:59;;;;;;;3.78;1.08;;;;;;;;;;5033656;28;20026;-64
2022/12/23 01:57:26;;;;;;;2.60;0.90;;;;;;;;;;5033471;28;20422;-64
2022/12/23 02:05:23;;;;;;;9.27;1.15;;;;;;;;;;5024182;28;20108;-64
2022/12/23 02:10:53;;;;;;;3.75;1.30;;;;;;;;;;5033230;28;20375;-64
2022/12/23 02:13:34;;;;;;;9.07;1.27;;;;;;;;;;5033274;28;20029;-64
2022/12/23 02:16:17;;;;;;;4.88;1.02;;;;;;;;;;5033186;28;20036;-64
2022/12/23 02:18:43;;;;;;;4.75;1.30;;;;;;;;;;5033255;28;20036;-64
2022/12/23 02:21:12;;;;;;;3.00;1.23;;;;;;;;;;5033272;28;20022;-64
2022/12/23 02:23:57;;;;;;;11.48;1.75;;;;;;;;;;5033948;28;20497;-64
2022/12/23 02:26:41;;;;;;;13.35;2.50;;;;;;;;;;5033068;28;20052;-64
2022/12/23 02:29:10;;;;;;;9.82;2.00;;;;;;;;;;5033057;28;20038;-64
2022/12/23 02:31:36;;;;;;;11.40;3.25;;;;;;;;;;5032438;28;20025;-64
2022/12/23 02:34:02;;;;;;;11.85;2.80;;;;;;;;;;5045420;28;20049;-64
2022/12/23 02:36:47;;;;;;;11.40;2.30;;;;;;;;;;5047753;28;20030;-64
2022/12/23 02:39:16;;;;;;;15.77;3.55;;;;;;;;;;5016328;28;20100;-64
2022/12/23 02:41:54;;;;;;;19.90;3.88;;;;;;;;;;5032168;28;20029;-64
2022/12/23 02:44:34;;;;;;;12.82;2.80;;;;;;;;;;5032568;28;20029;-64
2022/12/23 02:47:03;;;;;;;18.55;3.92;;;;;;;;;;5032512;28;20069;-64
2022/12/23 02:49:32;;;;;;;18.75;3.35;;;;;;;;;;5032776;28;20030;-65
2022/12/23 02:52:00;;;;;;;18.15;2.97;;;;;;;;;;5044500;28;20021;-65
2022/12/23 02:54:29;;;;;;;15.60;3.70;;;;;;;;;;5032132;28;20117;-65
2022/12/23 02:56:56;;;;;;;15.18;3.75;;;;;;;;;;5032600;28;20022;-65
2022/12/23 02:59:26;;;;;;;17.13;3.72;;;;;;;;;;5032646;28;20470;-65
2022/12/23 03:01:53;;;;;;;19.65;4.07;;;;;;;;;;5031823;28;20040;-65
2022/12/23 03:04:19;;;;;;;22.52;4.57;;;;;;;;;;5015063;28;20434;-65
2022/12/23 03:06:48;;;;;;;15.20;3.88;;;;;;;;;;5012670;28;20037;-64
2022/12/23 03:09:26;;;;;;;23.23;4.10;;;;;;;;;;5012947;28;20061;-64
2022/12/23 03:11:59;;;;;;;24.58;4.85;;;;;;;;;;5024265;28;20057;-64
2022/12/23 03:14:25;;;;;;;26.05;4.82;;;;;;;;;;5012485;28;20382;-64
2022/12/23 03:16:54;;;;;;;19.63;4.30;;;;;;;;;;5012751;28;20057;-64
2022/12/23 03:19:20;;;;;;;23.75;4.93;;;;;;;;;;5012916;28;20026;-64
2022/12/23 03:22:06;;;;;;;24.10;4.85;;;;;;;;;;5012865;28;20054;-64
2022/12/23 03:24:32;;;;;;;16.80;3.95;;;;;;;;;;5012775;28;20037;-64
2022/12/23 03:27:21;;;;;;;26.63;4.28;;;;;;;;;;5012765;28;20479;-64
2022/12/23 03:29:59;;;;;;;14.35;3.67;;;;;;;;;;5033824;28;20553;-64
2022/12/23 03:32:27;;;;;;;13.82;4.18;;;;;;;;;;5052204;28;20045;-64
2022/12/23 03:34:55;;;;;;;23.50;3.65;;;;;;;;;;5052251;28;20089;-64
2022/12/23 03:37:22;;;;;;;13.20;3.70;;;;;;;;;;5052456;28;20064;-64
2022/12/23 03:39:53;;;;;;;20.40;4.35;;;;;;;;;;5047320;28;20029;-64
2022/12/23 03:42:24;;;;;;;14.00;3.10;;;;;;;;;;5032450;28;20458;-64
2022/12/23 03:44:51;;;;;;;11.25;3.22;;;;;;;;;;5031364;28;20029;-64
2022/12/23 03:47:43;;;;;;;14.85;3.00;;;;;;;;;;5032624;28;20497;-64
2022/12/23 03:50:11;;;;;;;15.68;3.42;;;;;;;;;;5038973;28;20489;-64
2022/12/23 03:52:42;;;;;;;7.93;2.65;;;;;;;;;;5052227;28;20381;-64
2022/12/23 03:55:11;;;;;;;10.88;2.63;;;;;;;;;;5056031;28;20037;-64
2022/12/23 03:57:40;;;;;;;13.48;2.90;;;;;;;;;;5040464;28;20553;-64
2022/12/23 04:00:06;;;;;;;11.65;3.15;;;;;;;;;;5041109;28;20033;-64
2022/12/23 04:02:45;;;;;;;12.93;2.83;;;;;;;;;;5055740;28;20021;-64
2022/12/23 04:05:11;;;;;;;7.00;2.38;;;;;;;;;;5055677;28;20048;-64
2022/12/23 04:07:39;;;;;;;11.93;2.70;;;;;;;;;;5029373;28;20039;-65
2022/12/23 04:10:07;;;;;;;11.38;2.80;;;;;;;;;;5039691;28;20037;-65
2022/12/23 04:12:33;;;;;;;10.95;2.70;;;;;;;;;;5055277;28;20024;-65
2022/12/23 04:15:00;;;;;;;13.18;2.80;;;;;;;;;;5054153;28;20091;-65
2022/12/23 04:17:26;;;;;;;11.68;2.60;;;;;;;;;;5035105;28;20033;-65
2022/12/23 04:19:52;;;;;;;6.30;2.30;;;;;;;;;;5041256;28;20083;-65
2022/12/23 04:22:18;;;;;;;8.50;3.63;;;;;;;;;;5052449;28;20070;-65
2022/12/23 04:24:44;;;;;;;7.15;2.10;;;;;;;;;;5037804;28;20025;-65
2022/12/23 04:27:12;;;;;;;9.68;2.28;;;;;;;;;;5034926;28;20033;-65
2022/12/23 04:29:39;;;;;;;3.90;1.77;;;;;;;;;;5034513;28;20056;-65
2022/12/23 04:32:05;;;;;;;5.88;1.85;;;;;;;;;;5035075;28;20087;-65
2022/12/23 04:34:31;;;;;;;8.30;2.65;;;;;;;;;;5035286;28;20037;-65
2022/12/23 04:36:57;;;;;;;6.57;1.88;;;;;;;;;;5043332;28;20017;-65
2022/12/23 04:39:23;;;;;;;4.70;1.77;;;;;;;;;;5055065;28;20473;-65
2022/12/23 04:41:49;;;;;;;7.57;1.75;;;;;;;;;;5054644;28;20033;-65
2022/12/23 04:44:16;;;;;;;6.88;1.77;;;;;;;;;;5054874;28;20029;-65
2022/12/23 04:46:42;;;;;;;5.22;1.45;;;;;;;;;;5048087;28;20477;-65
2022/12/23 04:49:08;;;;;;;5.22;1.50;;;;;;;;;;5033777;28;20405;-65
2022/12/23 04:51:34;;;;;;;4.93;1.35;;;;;;;;;;5034765;28;20100;-65
2022/12/23 04:54:00;;;;;;;3.17;1.30;;;;;;;;;;5034462;28;20030;-65
2022/12/23 04:56:26;;;;;;;3.10;1.05;;;;;;;;;;5034437;28;20148;-65
2022/12/23 04:58:52;;;;;;;3.17;0.85;;;;;;;;;;5034622;28;20036;-65
2022/12/23 05:01:19;;;;;;;2.10;0.95;;;;;;;;;;5034209;28;20022;-65
2022/12/23 05:03:45;;;;;;;3.83;0.70;;;;;;;;;;5034067;28;20026;-64
2022/12/23 05:06:11;;;;;;;2.30;0.47;;;;;;;;;;5033599;28;20031;-64
2022/12/23 05:08:37;;;;;;;1.58;0.70;;;;;;;;;;5034632;28;20029;-64
2022/12/23 05:11:03;;;;;;;4.03;0.52;;;;;;;;;;5033897;28;20512;-64
2022/12/23 05:13:29;;;;;;;1.48;0.50;;;;;;;;;;5034521;28;20057;-64
2022/12/23 05:15:55;;;;;;;3.65;0.47;;;;;;;;;;5034225;28;20143;-64
2022/12/23 05:18:22;;;;;;;0.75;0.40;;;;;;;;;;5053629;28;20120;-64
2022/12/23 05:20:48;;;;;;;0.45;0.25;;;;;;;;;;5053913;28;20091;-64
2022/12/23 05:23:15;;;;;;;2.28;0.40;;;;;;;;;;5049045;28;20024;-64
2022/12/23 05:25:41;;;;;;;0.77;0.20;;;;;;;;;;5036488;28;20029;-64
2022/12/23 05:28:08;;;;;;;1.15;0.30;;;;;;;;;;5033764;28;20397;-64
2022/12/23 05:30:34;;;;;;;1.10;0.45;;;;;;;;;;5034124;28;20117;-64
2022/12/23 05:33:00;;;;;;;2.67;0.43;;;;;;;;;;5035752;28;20057;-64
2022/12/23 05:35:27;;;;;;;0.40;0.30;;;;;;;;;;5028357;28;20101;-64
2022/12/23 05:37:53;;;;;;;0.90;0.50;;;;;;;;;;5019526;28;20026;-65
2022/12/23 05:40:19;;;;;;;0.85;0.32;;;;;;;;;;5013861;28;20030;-65
2022/12/23 05:42:46;;;;;;;1.52;0.60;;;;;;;;;;5014308;28;20570;-65
2022/12/23 05:45:12;;;;;;;0.35;0.20;;;;;;;;;;5026555;28;20029;-65
2022/12/23 05:47:38;;;;;;;0.98;0.20;;;;;;;;;;5053526;28;20032;-65
2022/12/23 05:50:04;;;;;;;0.55;0.30;;;;;;;;;;5053477;28;20517;-65
2022/12/23 05:52:30;;;;;;;2.22;0.40;;;;;;;;;;5052378;28;20033;-65
2022/12/23 05:54:56;;;;;;;0.98;0.40;;;;;;;;;;5048823;28;20478;-65
2022/12/23 05:57:22;;;;;;;1.05;0.43;;;;;;;;;;5033575;28;20025;-65
2022/12/23 05:59:48;;;;;;;4.80;0.70;;;;;;;;;;5033635;28;20029;-65
2022/12/23 06:02:15;;;;;;;0.30;0.20;;;;;;;;;;5033094;28;20397;-65
2022/12/23 06:04:41;;;;;;;1.70;0.30;;;;;;;;;;5033777;28;20039;-65
2022/12/23 06:07:07;;;;;;;1.95;0.40;;;;;;;;;;5045168;28;20064;-65
2022/12/23 06:09:33;;;;;;;0.88;0.30;;;;;;;;;;5035179;28;20043;-65
2022/12/23 06:11:59;;;;;;;0.50;0.30;;;;;;;;;;5053284;28;20036;-65
2022/12/23 06:14:25;;;;;;;0.85;0.45;;;;;;;;;;5053094;28;20067;-65
2022/12/23 06:16:51;;;;;;;1.75;0.50;;;;;;;;;;5032579;28;20120;-65
2022/12/23 06:19:17;;;;;;;2.30;0.55;;;;;;;;;;5033165;28;20033;-65
2022/12/23 06:21:44;;;;;;;1.95;0.52;;;;;;;;;;5044901;28;20033;-64
2022/12/23 06:24:10;;;;;;;2.13;0.88;;;;;;;;;;5033750;28;20083;-64
2022/12/23 06:26:36;;;;;;;0.88;0.50;;;;;;;;;;5032957;28;20474;-64
2022/12/23 06:29:02;;;;;;;5.72;0.90;;;;;;;;;;5031609;28;20478;-64
2022/12/23 06:31:28;;;;;;;1.50;0.60;;;;;;;;;;5031703;28;20104;-64
2022/12/23 06:33:55;;;;;;;1.58;0.85;;;;;;;;;;5031352;28;20050;-64
2022/12/23 06:36:22;;;;;;;5.30;1.08;;;;;;;;;;5032055;28;20391;-64
2022/12/23 06:38:48;;;;;;;3.17;0.88;;;;;;;;;;5031583;28;20056;-65
2022/12/23 06:41:14;;;;;;;1.63;0.70;;;;;;;;;;5031045;28;20079;-64
2022/12/23 06:43:40;;;;;;;5.30;1.15;;;;;;;;;;5029868;28;20104;-64
2022/12/23 06:46:06;;;;;;;6.65;1.30;;;;;;;;;;5030574;28;20036;-64
2022/12/23 06:48:33;;;;;;;4.90;1.20;;;;;;;;;;5031189;28;20075;-64
2022/12/23 06:50:59;;;;;;;7.30;1.27;;;;;;;;;;5031578;28;20025;-64
2022/12/23 06:53:25;;;;;;;6.63;2.30;;;;;;;;;;5032653;28;20454;-64
2022/12/23 06:55:58;;;;;;;7.20;1.77;;;;;;;;;;5031558;28;20036;-64
2022/12/23 06:58:24;;;;;;;8.00;1.85;;;;;;;;;;5029345;28;20152;-64
2022/12/23 07:00:50;;;;;;;9.60;2.00;;;;;;;;;;5031122;28;20406;-64
2022/12/23 07:03:16;;;;;;;8.70;1.65;;;;;;;;;;5030895;28;20113;-64
2022/12/23 07:05:46;;;;;;;10.25;2.47;;;;;;;;;;5031564;28;20033;-64
2022/12/23 07:08:12;;;;;;;7.30;1.90;;;;;;;;;;5031354;28;20108;-64
2022/12/23 07:10:38;;;;;;;9.63;2.30;;;;;;;;;;5031182;28;20056;-64
2022/12/23 07:13:04;;;;;;;10.38;2.40;;;;;;;;;;5031451;28;20083;-64
2022/12/23 07:15:31;;;;;;;13.02;2.92;;;;;;;;;;5031463;28;20025;-64
2022/12/23 07:17:57;;;;;;;10.57;2.72;;;;;;;;;;5031076;28;20087;-64
2022/12/23 07:20:23;;;;;;;14.68;2.83;;;;;;;;;;5031291;28;20049;-64
2022/12/23 07:22:49;;;;;;;15.07;2.60;;;;;;;;;;5031350;28;20099;-64
2022/12/23 07:25:15;;;;;;;17.30;3.40;;;;;;;;;;5031383;28;20026;-64
2022/12/23 07:27:42;;;;;;;16.63;3.00;;;;;;;;;;5033298;28;20025;-64
2022/12/23 07:30:08;;;;;;;23.35;4.75;;;;;;;;;;5035363;28;20401;-65
2022/12/23 07:32:34;;;;;;;21.88;4.00;;;;;;;;;;5029667;28;20042;-65
2022/12/23 07:35:00;;;;;;;25.38;5.07;;;;;;;;;;5032340;28;20176;-65
2022/12/23 07:37:26;;;;;;;30.98;6.40;;;;;;;;;;5033488;28;20029;-65
2022/12/23 07:39:52;;;;;;;32.70;6.03;;;;;;;;;;5028194;28;20018;-65
2022/12/23 07:42:19;;;;;;;29.40;5.47;;;;;;;;;;5028798;28;20025;-65
2022/12/23 07:44:45;;;;;;;32.25;5.90;;;;;;;;;;5028271;28;20372;-64
2022/12/23 07:47:11;;;;;;;29.95;5.63;;;;;;;;;;5023683;28;20461;-64
2022/12/23 07:49:37;;;;;;;38.60;7.68;;;;;;;;;;5026726;28;20025;-64
2022/12/23 07:52:03;;;;;;;30.85;6.72;;;;;;;;;;5021432;28;20029;-64
2022/12/23 07:54:29;;;;;;;42.80;5.75;;;;;;;;;;5026237;28;20041;-64
2022/12/23 07:56:56;;;;;;;44.60;7.65;;;;;;;;;;5026277;28;20431;-64
2022/12/23 07:59:25;;;;;;;37.47;7.50;;;;;;;;;;5025686;28;20028;-64
2022/12/23 08:01:51;;;;;;;40.03;7.03;;;;;;;;;;5024800;28;20041;-64
2022/12/23 08:04:18;;;;;;;30.23;6.22;;;;;;;;;;5022830;28;20449;-64
2022/12/23 08:06:44;;;;;;;41.00;7.90;;;;;;;;;;5026900;28;20025;-64
2022/12/23 08:09:10;;;;;;;39.70;6.65;;;;;;;;;;5020171;28;20033;-64
2022/12/23 08:11:36;;;;;;;32.33;6.47;;;;;;;;;;5022160;28;20028;-64
2022/12/23 08:14:02;;;;;;;42.58;8.02;;;;;;;;;;5016732;28;20117;-64
2022/12/23 08:16:28;;;;;;;39.85;6.82;;;;;;;;;;5020017;28;20109;-64
2022/12/23 08:18:54;;;;;;;41.75;7.25;;;;;;;;;;5030600;28;20490;-64
2022/12/23 08:21:20;;;;;;;38.47;6.82;;;;;;;;;;5022051;28;20053;-64
2022/12/23 08:23:47;;;;;;;42.85;7.28;;;;;;;;;;5027982;28;20025;-65
2022/12/23 08:26:14;;;;;;;47.55;7.80;;;;;;;;;;5033279;28;20026;-65
2022/12/23 08:28:41;;;;;;;32.45;6.95;;;;;;;;;;5033586;28;20478;-65
2022/12/23 08:31:09;;;;;;;44.83;6.88;;;;;;;;;;5022936;28;20071;-64
2022/12/23 08:33:37;;;;;;;34.72;7.78;;;;;;;;;;5031007;28;20288;-65
2022/12/23 08:36:04;;;;;;;41.17;7.25;;;;;;;;;;5031349;28;20058;-65
2022/12/23 08:38:30;;;;;;;39.00;7.85;;;;;;;;;;5025237;28;20028;-65
2022/12/23 08:40:56;;;;;;;46.58;6.88;;;;;;;;;;5024630;28;20029;-65
2022/12/23 08:43:22;;;;;;;51.15;10.38;;;;;;;;;;5026312;28;20100;-65
2022/12/23 08:45:49;;;;;;;51.22;7.65;;;;;;;;;;5027592;28;20171;-65
2022/12/23 08:48:15;;;;;;;43.28;8.05;;;;;;;;;;5031176;28;20438;-65
2022/12/23 08:50:42;;;;;;;55.03;10.13;;;;;;;;;;5031279;28;20036;-65
2022/12/23 08:53:09;;;;;;;56.65;8.98;;;;;;;;;;5031347;28;20022;-65
2022/12/23 08:55:42;;;;;;;44.10;8.35;;;;;;;;;;5030883;28;20047;-65
2022/12/23 08:58:09;;;;;;;58.08;9.18;;;;;;;;;;5026083;28;20028;-65
2022/12/23 09:00:35;;;;;;;49.13;8.38;;;;;;;;;;5027581;28;20021;-65
2022/12/23 09:03:01;;;;;;;46.55;9.73;;;;;;;;;;5028039;28;20529;-65
2022/12/23 09:05:28;;;;;;;51.83;8.10;;;;;;;;;;5017006;28;20026;-65
2022/12/23 09:07:54;;;;;;;52.40;9.90;;;;;;;;;;5026305;28;20549;-65
2022/12/23 09:10:20;;;;;;;47.80;6.97;;;;;;;;;;5030307;28;20036;-65
2022/12/23 09:12:46;;;;;;;50.65;9.05;;;;;;;;;;5026487;28;20039;-65
2022/12/23 09:15:12;;;;;;;53.33;8.50;;;;;;;;;;5022436;28;20501;-65
2022/12/23 09:17:38;;;;;;;44.63;7.72;;;;;;;;;;5028422;28;20522;-65
2022/12/23 09:20:05;;;;;;;43.53;8.45;;;;;;;;;;5028378;28;20018;-65
2022/12/23 09:22:34;;;;;;;51.60;8.88;;;;;;;;;;5027967;28;20032;-65
2022/12/23 09:25:00;;;;;;;46.80;7.32;;;;;;;;;;5030822;28;20032;-65
2022/12/23 09:27:26;;;;;;;50.97;8.13;;;;;;;;;;5028116;28;20040;-65
2022/12/23 09:29:52;;;;;;;54.75;8.63;;;;;;;;;;5024877;28;20490;-65
2022/12/23 09:32:18;;;;;;;46.40;8.20;;;;;;;;;;5026462;28;20029;-65
2022/12/23 09:34:44;;;;;;;53.13;10.15;;;;;;;;;;5030887;28;20034;-65
2022/12/23 09:37:15;;;;;;;52.92;7.88;;;;;;;;;;5022959;28;20026;-65
2022/12/23 09:39:42;;;;;;;49.17;8.15;;;;;;;;;;5028408;28;20029;-64
2022/12/23 09:42:24;;;;;;;60.38;9.23;;;;;;;;;;5025676;28;20109;-64
2022/12/23 09:44:53;;;;;;;46.33;7.55;;;;;;;;;;5032567;28;20064;-64
2022/12/23 09:47:21;;;;;;;46.28;7.53;;;;;;;;;;5029948;28;20056;-64
2022/12/23 09:49:52;;;;;;;47.65;8.32;;;;;;;;;;5025479;28;20029;-64
2022/12/23 09:52:30;;;;;;;58.25;9.10;;;;;;;;;;5026317;28;20079;-64
2022/12/23 09:54:56;;;;;;;45.90;9.20;;;;;;;;;;5032270;28;20080;-64
2022/12/23 09:57:25;;;;;;;42.78;7.80;;;;;;;;;;5021782;28;20601;-65
2022/12/23 09:59:57;;;;;;;54.50;7.55;;;;;;;;;;5029943;28;20036;-65
2022/12/23 10:02:30;;;;;;;60.13;8.88;;;;;;;;;;5031604;28;20026;-65
2022/12/23 10:05:08;;;;;;;50.47;9.75;;;;;;;;;;5025738;28;20034;-65
2022/12/23 10:07:42;;;;;;;47.15;8.73;;;;;;;;;;5025368;28;20025;-65
2022/12/23 10:10:17;;;;;;;47.17;8.50;;;;;;;;;;5030342;28;20035;-65
2022/12/23 10:12:46;;;;;;;41.20;7.50;;;;;;;;;;5017983;28;20036;-65
2022/12/23 10:15:30;;;;;;;49.85;8.35;;;;;;;;;;5022735;28;20090;-65
2022/12/23 10:18:00;;;;;;;43.97;8.07;;;;;;;;;;5024661;28;20053;-65
2022/12/23 10:20:48;;;;;;;46.17;7.93;;;;;;;;;;5026146;28;20021;-65
2022/12/23 10:23:17;;;;;;;36.65;7.50;;;;;;;;;;5031866;28;20040;-65
2022/12/23 10:25:49;;;;;;;48.63;8.30;;;;;;;;;;5026211;28;20029;-65
2022/12/23 10:28:15;;;;;;;29.30;7.47;;;;;;;;;;5029612;28;20034;-65
2022/12/23 10:30:42;;;;;;;49.30;11.60;;;;;;;;;;5027586;28;20038;-65
2022/12/23 10:33:20;;;;;;;52.35;8.75;;;;;;;;;;5031202;28;20053;-65
2022/12/23 10:36:06;;;;;;;47.63;7.70;;;;;;;;;;5032213;28;20048;-65
2022/12/23 10:38:42;;;;;;;58.03;9.75;;;;;;;;;;5028453;28;20025;-65
2022/12/23 10:41:12;;;;;;;48.63;9.32;;;;;;;;;;5020366;28;20050;-65
2022/12/23 10:43:57;;;;;;;51.88;8.82;;;;;;;;;;5027753;28;20028;-65
2022/12/23 10:46:34;;;;;;;47.85;7.78;;;;;;;;;;5029695;28;20029;-65
2022/12/23 10:49:05;;;;;;;41.97;8.90;;;;;;;;;;5026917;28;20033;-65
2022/12/23 10:51:35;;;;;;;51.77;10.67;;;;;;;;;;5029808;28;20048;-65
2022/12/23 10:54:05;;;;;;;43.95;8.75;;;;;;;;;;5030440;28;20041;-65
2022/12/23 10:56:31;;;;;;;52.40;9.15;;;;;;;;;;5030392;28;20083;-64
2022/12/23 10:58:59;;;;;;;53.13;8.75;;;;;;;;;;5027856;28;20108;-64
2022/12/23 11:01:26;;;;;;;37.47;8.43;;;;;;;;;;5030765;28;20026;-64
2022/12/23 11:04:11;;;;;;;49.22;9.73;;;;;;;;;;5034502;28;20056;-64
2022/12/23 11:06:39;;;;;;;52.60;8.95;;;;;;;;;;5029200;28;20568;-64
2022/12/23 11:09:05;;;;;;;53.25;9.27;;;;;;;;;;5032894;28;20031;-64
2022/12/23 11:11:50;;;;;;;47.97;8.68;;;;;;;;;;5034566;28;20057;-64
2022/12/23 11:14:30;;;;;;;37.92;6.60;;;;;;;;;;5025075;28;20052;-64
2022/12/23 11:16:56;;;;;;;36.47;7.45;;;;;;;;;;5031450;28;20021;-64
2022/12/23 11:19:22;;;;;;;42.13;8.68;;;;;;;;;;5034489;28;20470;-64
2022/12/23 11:21:55;;;;;;;38.50;7.20;;;;;;;;;;5034128;28;20048;-64
2022/12/23 11:24:22;;;;;;;48.30;7.88;;;;;;;;;;5028682;28;20033;-64
2022/12/23 11:26:50;;;;;;;32.58;7.07;;;;;;;;;;5033911;28;20030;-65
2022/12/23 11:29:25;;;;;;;39.65;6.90;;;;;;;;;;5027574;28;20086;-65
2022/12/23 11:31:51;;;;;;;44.20;7.63;;;;;;;;;;5032467;28;20560;-65
2022/12/23 11:34:19;;;;;;;39.25;9.05;;;;;;;;;;5030579;28;20042;-64
2022/12/23 11:36:55;;;;;;;42.75;6.90;;;;;;;;;;5023475;28;20025;-64
2022/12/23 11:39:24;;;;;;;43.85;6.22;;;;;;;;;;5032034;28;20406;-64
2022/12/23 11:41:51;;;;;;;54.00;6.95;;;;;;;;;;5028632;28;20104;-64
2022/12/23 11:44:17;;;;;;;42.08;6.13;;;;;;;;;;5033169;28;20022;-64
2022/12/23 11:46:43;;;;;;;45.47;9.07;;;;;;;;;;5031054;28;20044;-64
2022/12/23 11:49:17;;;;;;;32.90;8.02;;;;;;;;;;5031675;28;20029;-64
2022/12/23 11:51:44;;;;;;;62.50;8.77;;;;;;;;;;5026065;28;20088;-64
2022/12/23 11:54:18;;;;;;;47.75;7.85;;;;;;;;;;5029245;28;20029;-64
2022/12/23 11:56:47;;;;;;;41.47;7.30;;;;;;;;;;5019202;28;20028;-64
2022/12/23 11:59:32;;;;;;;39.70;6.47;;;;;;;;;;5027556;28;20485;-64
2022/12/23 12:02:03;;;;;;;48.20;7.82;;;;;;;;;;5020763;28;20458;-64
2022/12/23 12:04:32;;;;;;;46.55;7.75;;;;;;;;;;5022707;28;20064;-64
2022/12/23 12:06:59;;;;;;;41.08;6.30;;;;;;;;;;5016805;28;20049;-64
2022/12/23 12:09:26;;;;;;;45.13;7.43;;;;;;;;;;5028805;28;20034;-64
2022/12/23 12:12:03;;;;;;;34.92;6.65;;;;;;;;;;5018998;28;20045;-64
2022/12/23 12:14:29;;;;;;;43.10;7.22;;;;;;;;;;5026036;28;20038;-64
2022/12/23 12:16:55;;;;;;;53.63;7.70;;;;;;;;;;5020510;28;20021;-64
2022/12/23 12:19:28;;;;;;;40.03;6.93;;;;;;;;;;5032026;28;20057;-64
2022/12/23 12:21:56;;;;;;;35.33;6.20;;;;;;;;;;5029117;28;20032;-64
2022/12/23 12:24:25;;;;;;;42.28;8.02;;;;;;;;;;5030042;28;20159;-64
2022/12/23 12:26:52;;;;;;;29.02;5.70;;;;;;;;;;5028693;28;20053;-64
2022/12/23 12:29:32;;;;;;;49.72;7.28;;;;;;;;;;5029350;28;20068;-64
2022/12/23 12:31:59;;;;;;;36.00;7.07;;;;;;;;;;5020254;28;20425;-64
2022/12/23 12:34:57;;;;;;;34.95;6.88;;;;;;;;;;5030133;28;20045;-64
2022/12/23 12:37:44;;;;;;;37.70;7.22;;;;;;;;;;5041152;28;20061;-64
2022/12/23 12:40:13;;;;;;;42.03;6.93;;;;;;;;;;5028703;28;20061;-64
2022/12/23 12:42:40;;;;;;;34.08;6.75;;;;;;;;;;5030383;28;20024;-64
2022/12/23 12:45:09;;;;;;;50.80;7.53;;;;;;;;;;5031582;28;20025;-64
2022/12/23 12:47:38;;;;;;;40.05;7.13;;;;;;;;;;5031370;28;20079;-64
2022/12/23 12:50:15;;;;;;;39.90;7.35;;;;;;;;;;5031561;28;20493;-64
2022/12/23 12:52:42;;;;;;;42.45;8.68;;;;;;;;;;5031806;28;20512;-64
2022/12/23 12:55:19;;;;;;;48.85;7.85;;;;;;;;;;5030873;28;20026;-64
2022/12/23 12:57:45;;;;;;;34.05;7.13;;;;;;;;;;5031145;28;20481;-65
2022/12/23 13:00:32;;;;;;;43.00;8.38;;;;;;;;;;5030014;28;20040;-64
2022/12/23 13:03:01;;;;;;;42.22;7.97;;;;;;;;;;5024172;28;20045;-64
2022/12/23 13:05:30;;;;;;;52.83;8.00;;;;;;;;;;5028660;28;20037;-65
2022/12/23 13:08:15;;;;;;;47.00;7.47;;;;;;;;;;5031373;28;20117;-65
2022/12/23 13:10:48;;;;;;;46.22;8.13;;;;;;;;;;5028328;28;20552;-65
2022/12/23 13:13:33;;;;;;;31.88;7.05;;;;;;;;;;5023059;28;20029;-65
2022/12/23 13:16:06;;;;;;;31.83;5.97;;;;;;;;;;5021774;28;20045;-65
2022/12/23 13:18:38;;;;;;;39.70;7.55;;;;;;;;;;5028020;28;20473;-65
2022/12/23 13:21:28;;;;;;;47.00;7.10;;;;;;;;;;5024428;28;20572;-64
2022/12/23 13:24:00;;;;;;;40.67;6.95;;;;;;;;;;5021633;28;20048;-64
2022/12/23 13:26:36;;;;;;;47.30;7.20;;;;;;;;;;5021425;28;20112;-64
2022/12/23 13:29:02;;;;;;;45.70;7.75;;;;;;;;;;5020036;28;20039;-65
2022/12/23 13:31:34;;;;;;;39.25;6.78;;;;;;;;;;5024501;28;20076;-65
2022/12/23 13:34:10;;;;;;;32.80;6.87;;;;;;;;;;5022770;28;20106;-65
2022/12/23 13:36:55;;;;;;;43.55;7.32;;;;;;;;;;5020579;28;20021;-65
2022/12/23 13:39:39;;;;;;;48.63;9.55;;;;;;;;;;5023591;28;21363;-65
2022/12/23 13:42:08;;;;;;;51.47;7.30;;;;;;;;;;5022397;28;20040;-65
2022/12/23 13:44:35;;;;;;;43.42;7.55;;;;;;;;;;5023013;28;20028;-65
2022/12/23 13:47:16;;;;;;;44.05;7.15;;;;;;;;;;5022342;28;20032;-65
2022/12/23 13:49:57;;;;;;;32.42;7.60;;;;;;;;;;5026457;28;20032;-65
2022/12/23 13:52:29;;;;;;;38.33;5.80;;;;;;;;;;5020211;28;20489;-64
2022/12/23 13:54:55;;;;;;;40.73;6.93;;;;;;;;;;5019370;28;20052;-64
2022/12/23 13:57:27;;;;;;;41.65;6.13;;;;;;;;;;5021448;28;20030;-64
2022/12/23 13:59:58;;;;;;;40.42;6.43;;;;;;;;;;5024042;28;20082;-64
2022/12/23 14:02:36;;;;;;;34.83;6.57;;;;;;;;;;5026530;28;20117;-65
2022/12/23 14:05:04;;;;;;;44.25;7.47;;;;;;;;;;5023443;28;20041;-64
2022/12/23 14:07:32;;;;;;;43.78;7.82;;;;;;;;;;5023784;28;20033;-64
2022/12/23 14:10:11;;;;;;;47.92;6.90;;;;;;;;;;5023084;28;20025;-64
2022/12/23 14:12:39;;;;;;;43.72;6.68;;;;;;;;;;5021634;28;20021;-64
2022/12/23 14:15:27;;;;;;;44.67;7.68;;;;;;;;;;5021241;28;20076;-64
2022/12/23 14:17:56;;;;;;;44.15;9.13;;;;;;;;;;5022098;28;20030;-64
2022/12/23 14:20:32;;;;;;;43.97;7.65;;;;;;;;;;5021637;28;20045;-64
2022/12/23 14:23:04;;;;;;;43.42;6.75;;;;;;;;;;5022877;28;20037;-64
2022/12/23 14:25:45;;;;;;;40.17;7.22;;;;;;;;;;5021571;28;20561;-64
2022/12/23 14:28:33;;;;;;;34.53;6.45;;;;;;;;;;5018575;28;20049;-64
2022/12/23 14:30:59;;;;;;;38.03;6.22;;;;;;;;;;5019710;28;20279;-64
2022/12/23 14:33:30;;;;;;;51.60;7.43;;;;;;;;;;5019675;28;20045;-64
2022/12/23 14:35:57;;;;;;;41.03;8.25;;;;;;;;;;5019733;28;20156;-64
2022/12/23 14:38:30;;;;;;;35.95;5.97;;;;;;;;;;5016967;28;20144;-64
2022/12/23 14:40:59;;;;;;;43.95;8.50;;;;;;;;;;5021582;28;20037;-64
2022/12/23 14:43:37;;;;;;;42.22;7.45;;;;;;;;;;5021419;28;20604;-64
2022/12/23 14:46:05;;;;;;;55.15;8.15;;;;;;;;;;5028472;28;20034;-64
2022/12/23 14:48:43;;;;;;;49.65;8.13;;;;;;;;;;5023574;28;20139;-64
2022/12/23 14:51:09;;;;;;;41.47;8.27;;;;;;;;;;5018855;28;20037;-64
2022/12/23 14:53:59;;;;;;;40.08;7.22;;;;;;;;;;5021413;28;20029;-64
2022/12/23 14:56:41;;;;;;;47.58;8.73;;;;;;;;;;5017504;28;20049;-64
2022/12/23 14:59:08;;;;;;;49.22;7.63;;;;;;;;;;5019922;28;20493;-64
2022/12/23 15:01:46;;;;;;;48.78;8.65;;;;;;;;;;5017025;28;20509;-64
2022/12/23 15:04:12;;;;;;;37.15;7.82;;;;;;;;;;5019867;28;20494;-64
2022/12/23 15:06:43;;;;;;;37.22;6.60;;;;;;;;;;5020655;28;20406;-64
2022/12/23 15:09:18;;;;;;;40.03;8.25;;;;;;;;;;5024764;28;20033;-64
2022/12/23 15:11:44;;;;;;;37.15;6.40;;;;;;;;;;5020156;28;20053;-64
2022/12/23 15:14:14;;;;;;;36.83;6.63;;;;;;;;;;5018509;28;20029;-64
2022/12/23 15:16:43;;;;;;;46.40;6.45;;;;;;;;;;5015491;28;20050;-64